createdAt,value
2022-08-11T00:02:02.135Z,15.53
2022-08-11T00:04:37.049Z,15.53
2022-08-11T00:07:06.810Z,15.54
2022-08-11T00:09:40.180Z,15.51
2022-08-11T00:12:16.733Z,15.39
2022-08-11T00:14:45.330Z,15.30
2022-08-11T00:17:15.752Z,15.24
2022-08-11T00:20:12.401Z,15.21
2022-08-11T00:22:35.528Z,15.22
2022-08-11T00:25:21.659Z,15.16
2022-08-11T00:27:49.185Z,15.11
2022-08-11T00:30:17.026Z,15.10
2022-08-11T00:32:55.129Z,15.06
2022-08-11T00:35:52.569Z,14.99
2022-08-11T00:38:24.817Z,14.99
2022-08-11T00:41:28.979Z,14.92
2022-08-11T00:44:04.494Z,14.86
2022-08-11T00:47:10.872Z,14.82
2022-08-11T00:49:57.878Z,14.88
2022-08-11T00:52:44.268Z,14.67
2022-08-11T00:56:02.928Z,14.73
2022-08-11T00:59:06.055Z,14.76
2022-08-11T01:02:12.724Z,14.74
2022-08-11T01:05:25.824Z,14.76
2022-08-11T01:08:15.957Z,14.77
2022-08-11T01:11:17.239Z,14.77
2022-08-11T01:14:08.292Z,14.67
2022-08-11T01:17:04.179Z,14.55
2022-08-11T01:20:47.185Z,14.45
2022-08-11T01:23:19.779Z,14.46
2022-08-11T01:26:04.695Z,14.48
2022-08-11T01:28:59.074Z,14.45
2022-08-11T01:31:40.808Z,14.34
2022-08-11T01:35:01.303Z,14.21
2022-08-11T01:38:20.638Z,14.05
2022-08-11T01:41:15.105Z,13.90
2022-08-11T01:44:39.030Z,13.87
2022-08-11T01:47:53.405Z,14.02
2022-08-11T01:51:03.338Z,14.00
2022-08-11T01:54:09.734Z,13.91
2022-08-11T01:57:13.261Z,13.86
2022-08-11T01:59:50.013Z,13.80
2022-08-11T02:02:44.140Z,13.80
2022-08-11T02:05:52.102Z,13.81
2022-08-11T02:08:55.635Z,13.83
2022-08-11T02:11:37.473Z,13.76
2022-08-11T02:14:22.306Z,13.77
2022-08-11T02:17:35.866Z,13.78
2022-08-11T02:20:44.119Z,13.78
2022-08-11T02:24:05.548Z,13.78
2022-08-11T02:26:40.147Z,13.76
2022-08-11T02:29:29.625Z,13.82
2022-08-11T02:32:30.666Z,13.64
2022-08-11T02:35:16.181Z,13.61
2022-08-11T02:37:55.235Z,13.71
2022-08-11T02:40:36.145Z,13.67
2022-08-11T02:43:17.387Z,13.65
2022-08-11T02:46:27.354Z,13.65
2022-08-11T02:49:31.012Z,13.66
2022-08-11T02:52:26.395Z,13.44
2022-08-11T02:55:55.592Z,13.44
2022-08-11T02:58:30.660Z,13.49
2022-08-11T03:01:23.330Z,13.46
2022-08-11T03:04:10.982Z,13.43
2022-08-11T03:07:01.032Z,13.46
2022-08-11T03:09:48.327Z,13.37
2022-08-11T03:13:08.147Z,13.35
2022-08-11T03:16:36.294Z,13.17
2022-08-11T03:19:26.167Z,13.05
2022-08-11T03:22:37.380Z,13.15
2022-08-11T03:25:21.978Z,13.27
2022-08-11T03:28:06.142Z,13.30
2022-08-11T03:31:05.655Z,13.27
2022-08-11T03:34:06.248Z,13.25
2022-08-11T03:37:34.427Z,13.21
2022-08-11T03:40:43.238Z,13.05
2022-08-11T03:44:17.348Z,12.92
2022-08-11T03:47:18.811Z,12.84
2022-08-11T03:50:00.753Z,12.84
2022-08-11T03:53:28.222Z,12.76
2022-08-11T03:56:26.474Z,12.80
2022-08-11T03:59:17.868Z,12.88
2022-08-11T04:02:24.129Z,12.88
2022-08-11T04:06:00.010Z,12.79
2022-08-11T04:09:13.319Z,12.65
2022-08-11T04:12:36.759Z,12.53
2022-08-11T04:15:36.956Z,12.59
2022-08-11T04:18:29.055Z,12.62
2022-08-11T04:21:24.756Z,12.58
2022-08-11T04:24:41.059Z,12.64
2022-08-11T04:27:38.989Z,12.71
2022-08-11T04:30:13.103Z,12.67
2022-08-11T04:33:09.376Z,12.71
2022-08-11T04:36:09.627Z,12.75
2022-08-11T04:39:19.997Z,12.75
2022-08-11T04:42:45.380Z,12.74
2022-08-11T04:45:51.856Z,12.71
2022-08-11T04:48:54.908Z,12.74
2022-08-11T04:52:07.105Z,12.74
2022-08-11T04:55:26.670Z,12.74
2022-08-11T04:58:20.610Z,12.66
2022-08-11T05:01:37.505Z,12.60
2022-08-11T05:04:35.059Z,12.58
2022-08-11T05:07:58.664Z,12.57
2022-08-11T05:10:59.162Z,12.60
2022-08-11T05:14:07.893Z,12.62
2022-08-11T05:17:08.878Z,12.62
2022-08-11T05:19:56.176Z,12.61
2022-08-11T05:22:47.970Z,12.64
2022-08-11T05:26:43.242Z,12.69
2022-08-11T05:29:20.387Z,12.66
2022-08-11T05:32:20.530Z,12.66
2022-08-11T05:34:53.886Z,12.70
2022-08-11T05:37:29.715Z,12.74
2022-08-11T05:40:30.487Z,12.80
2022-08-11T05:43:21.002Z,12.87
2022-08-11T05:46:19.003Z,12.97
2022-08-11T05:49:06.326Z,13.05
2022-08-11T05:52:04.871Z,13.15
2022-08-11T05:54:54.514Z,13.29
2022-08-11T05:57:49.904Z,13.37
2022-08-11T06:00:14.846Z,13.46
2022-08-11T06:02:55.203Z,13.57
2022-08-11T06:05:22.724Z,13.73
2022-08-11T06:07:57.050Z,13.89
2022-08-11T06:10:35.785Z,14.03
2022-08-11T06:13:04.911Z,14.17
2022-08-11T06:15:44.483Z,14.29
2022-08-11T06:18:13.847Z,14.37
2022-08-11T06:20:56.380Z,14.48
2022-08-11T06:23:30.713Z,14.60
2022-08-11T06:26:00.176Z,14.71
2022-08-11T06:28:37.138Z,14.80
2022-08-11T06:31:17.007Z,14.88
2022-08-11T06:34:46.466Z,14.99
2022-08-11T06:37:34.493Z,15.15
2022-08-11T06:41:06.542Z,15.24
2022-08-11T06:44:05.651Z,15.30
2022-08-11T06:46:39.251Z,15.50
2022-08-11T06:49:27.547Z,15.71
2022-08-11T06:52:04.482Z,15.93
2022-08-11T06:54:36.984Z,16.12
2022-08-11T06:57:29.778Z,16.32
2022-08-11T07:00:19.008Z,16.56
2022-08-11T07:03:11.469Z,16.78
2022-08-11T07:05:46.404Z,17.00
2022-08-11T07:08:56.495Z,17.22
2022-08-11T07:12:21.137Z,17.36
2022-08-11T07:15:11.341Z,17.51
2022-08-11T07:17:49.676Z,17.68
2022-08-11T07:20:36.504Z,17.87
2022-08-11T07:23:28.042Z,18.01
2022-08-11T07:26:18.964Z,18.15
2022-08-11T07:28:56.147Z,18.28
2022-08-11T07:31:29.167Z,18.48
2022-08-11T07:34:25.451Z,18.62
2022-08-11T07:36:57.638Z,18.73
2022-08-11T07:39:33.191Z,18.87
2022-08-11T07:42:06.638Z,18.98
2022-08-11T07:44:55.587Z,19.11
2022-08-11T07:47:42.064Z,19.25
2022-08-11T07:50:29.444Z,19.39
2022-08-11T07:53:03.228Z,19.52
2022-08-11T07:55:51.483Z,19.67
2022-08-11T07:58:45.720Z,19.72
2022-08-11T08:01:46.220Z,19.87
2022-08-11T08:04:35.999Z,20.02
2022-08-11T08:07:24.789Z,20.12
2022-08-11T08:10:14.173Z,20.24
2022-08-11T08:13:01.716Z,20.34
2022-08-11T08:15:48.607Z,20.43
2022-08-11T08:18:27.033Z,20.51
2022-08-11T08:21:11.713Z,20.65
2022-08-11T08:23:47.513Z,20.73
2022-08-11T08:26:39.331Z,20.80
2022-08-11T08:29:26.058Z,20.89
2022-08-11T08:31:54.101Z,20.82
2022-08-11T08:34:21.693Z,21.02
2022-08-11T08:36:51.377Z,21.13
2022-08-11T08:39:22.761Z,21.24
2022-08-11T08:41:54.258Z,21.37
2022-08-11T08:44:41.462Z,21.50
2022-08-11T08:47:15.099Z,21.56
2022-08-11T08:50:10.494Z,21.74
2022-08-11T08:52:52.851Z,21.91
2022-08-11T08:55:20.782Z,21.84
2022-08-11T08:57:52.518Z,22.06
2022-08-11T09:00:23.398Z,22.23
2022-08-11T09:02:52.231Z,22.32
2022-08-11T09:05:21.221Z,22.39
2022-08-11T09:07:54.318Z,22.47
2022-08-11T09:10:21.467Z,22.57
2022-08-11T09:12:50.412Z,22.70
2022-08-11T09:15:19.384Z,22.78
2022-08-11T09:17:51.190Z,22.79
2022-08-11T09:20:21.569Z,22.88
2022-08-11T09:26:19.117Z,23.05
2022-08-11T09:28:49.621Z,23.13
2022-08-11T09:31:17.244Z,23.24
2022-08-11T09:33:45.742Z,23.38
2022-08-11T09:36:32.763Z,23.52
2022-08-11T09:39:21.970Z,23.63
2022-08-11T09:42:00.282Z,23.81
2022-08-11T09:44:48.733Z,23.95
2022-08-11T09:47:28.706Z,24.06
2022-08-11T09:50:01.618Z,24.14
2022-08-11T09:52:37.631Z,24.23
2022-08-11T09:55:10.810Z,24.28
2022-08-11T09:58:05.669Z,24.26
2022-08-11T10:00:40.107Z,24.36
2022-08-11T10:03:23.266Z,24.36
2022-08-11T10:06:33.358Z,24.34
2022-08-11T10:09:06.167Z,24.38
2022-08-11T10:11:37.298Z,24.36
2022-08-11T10:14:33.295Z,24.52
2022-08-11T10:17:07.368Z,24.63
2022-08-11T10:19:37.794Z,24.81
2022-08-11T10:22:27.569Z,24.87
2022-08-11T10:25:19.545Z,24.89
2022-08-11T10:28:17.851Z,24.94
2022-08-11T10:31:06.801Z,25.03
2022-08-11T10:34:02.287Z,25.15
2022-08-11T10:36:42.399Z,25.02
2022-08-11T10:39:17.029Z,25.04
2022-08-11T10:42:08.453Z,25.20
2022-08-11T10:44:45.967Z,25.28
2022-08-11T10:47:33.899Z,25.39
2022-08-11T10:50:27.730Z,25.40
2022-08-11T10:53:17.229Z,25.49
2022-08-11T10:56:05.668Z,25.67
2022-08-11T10:58:51.472Z,25.75
2022-08-11T11:01:22.602Z,25.79
2022-08-11T11:03:54.660Z,25.80
2022-08-11T11:06:30.283Z,25.79
2022-08-11T11:09:18.508Z,25.81
2022-08-11T11:12:13.540Z,25.87
2022-08-11T11:15:02.288Z,25.94
2022-08-11T11:17:56.058Z,25.95
2022-08-11T11:20:56.535Z,25.96
2022-08-11T11:23:49.587Z,26.04
2022-08-11T11:26:40.484Z,26.13
2022-08-11T11:29:35.104Z,26.21
2022-08-11T11:32:37.698Z,26.24
2022-08-11T11:35:20.755Z,26.37
2022-08-11T11:37:56.182Z,26.46
2022-08-11T11:40:32.733Z,26.47
2022-08-11T11:43:01.425Z,26.53
2022-08-11T11:45:29.444Z,26.54
2022-08-11T11:47:59.746Z,26.64
2022-08-11T11:50:35.183Z,26.75
2022-08-11T11:53:09.689Z,26.82
2022-08-11T11:55:37.608Z,26.82
2022-08-11T11:58:24.853Z,26.81
2022-08-11T12:01:12.243Z,26.85
2022-08-11T12:03:40.883Z,26.81
2022-08-11T12:06:09.774Z,26.67
2022-08-11T12:08:38.220Z,26.73
2022-08-11T12:11:28.798Z,26.69
2022-08-11T12:14:00.413Z,26.76
2022-08-11T12:16:33.834Z,26.87
2022-08-11T12:19:07.715Z,26.89
2022-08-11T12:21:37.119Z,26.97
2022-08-11T12:24:29.488Z,26.93
2022-08-11T12:27:17.814Z,26.99
2022-08-11T12:29:54.862Z,27.12
2022-08-11T12:32:34.928Z,27.20
2022-08-11T12:35:02.166Z,27.27
2022-08-11T12:37:37.754Z,27.30
2022-08-11T12:40:43.732Z,27.23
2022-08-11T12:43:40.780Z,27.15
2022-08-11T12:46:19.503Z,27.25
2022-08-11T12:49:11.102Z,27.38
2022-08-11T12:52:11.397Z,27.44
2022-08-11T12:54:49.625Z,27.50
2022-08-11T12:57:46.415Z,27.72
2022-08-11T13:00:33.025Z,27.33
2022-08-11T13:03:20.779Z,27.43
2022-08-11T13:05:52.135Z,27.53
2022-08-11T13:08:23.177Z,27.65
2022-08-11T13:11:10.399Z,27.74
2022-08-11T13:13:54.168Z,27.70
2022-08-11T13:16:32.470Z,27.61
2022-08-11T13:19:01.058Z,27.56
2022-08-11T13:21:29.664Z,27.56
2022-08-11T13:24:00.319Z,27.69
2022-08-11T13:26:43.460Z,27.79
2022-08-11T13:29:18.498Z,27.83
2022-08-11T13:31:46.924Z,27.77
2022-08-11T13:34:17.506Z,27.80
2022-08-11T13:36:45.771Z,27.78
2022-08-11T13:39:13.842Z,27.78
2022-08-11T13:41:43.895Z,27.80
2022-08-11T13:44:17.469Z,27.82
2022-08-11T13:46:47.714Z,27.85
2022-08-11T13:49:21.408Z,27.89
2022-08-11T13:51:48.523Z,27.89
2022-08-11T13:54:23.727Z,27.92
2022-08-11T13:56:56.071Z,27.88
2022-08-11T13:59:30.089Z,27.90
2022-08-11T14:02:23.024Z,27.82
2022-08-11T14:05:03.016Z,27.75
2022-08-11T14:07:40.710Z,27.71
2022-08-11T14:10:11.950Z,27.76
2022-08-11T14:13:03.180Z,27.73
2022-08-11T14:15:34.897Z,27.70
2022-08-11T14:18:09.038Z,27.69
2022-08-11T14:21:01.044Z,27.73
2022-08-11T14:23:34.646Z,27.74
2022-08-11T14:26:20.662Z,27.69
2022-08-11T14:28:48.435Z,27.67
2022-08-11T14:31:16.512Z,27.68
2022-08-11T14:34:00.482Z,27.70
2022-08-11T14:36:37.867Z,27.74
2022-08-11T14:39:12.580Z,27.78
2022-08-11T14:42:13.251Z,27.74
2022-08-11T14:45:08.451Z,27.72
2022-08-11T14:47:39.142Z,27.73
2022-08-11T14:50:12.703Z,27.69
2022-08-11T14:53:04.799Z,27.59
2022-08-11T14:55:57.735Z,27.54
2022-08-11T14:58:27.926Z,27.58
2022-08-11T15:00:58.952Z,27.57
2022-08-11T15:03:33.458Z,27.60
2022-08-11T15:06:03.392Z,27.61
2022-08-11T15:08:54.483Z,27.58
2022-08-11T15:11:48.790Z,27.57
2022-08-11T15:14:41.449Z,27.56
2022-08-11T15:17:10.250Z,27.53
2022-08-11T15:20:00.329Z,27.56
2022-08-11T15:22:46.120Z,27.60
2022-08-11T15:25:13.312Z,27.62
2022-08-11T15:28:01.142Z,27.69
2022-08-11T15:30:46.869Z,27.71
2022-08-11T15:33:36.610Z,27.64
2022-08-11T15:36:27.251Z,27.60
2022-08-11T15:39:20.831Z,27.60
2022-08-11T15:42:23.335Z,27.55
2022-08-11T15:45:18.760Z,27.53
2022-08-11T15:47:57.601Z,27.53
2022-08-11T15:50:38.720Z,27.54
2022-08-11T15:53:17.735Z,27.54
2022-08-11T15:55:46.870Z,27.55
2022-08-11T15:58:34.106Z,27.58
2022-08-11T16:01:22.327Z,27.62
2022-08-11T16:04:13.736Z,27.62
2022-08-11T16:07:01.999Z,27.65
2022-08-11T16:10:00.217Z,27.64
2022-08-11T16:12:32.669Z,27.59
2022-08-11T16:15:23.785Z,27.65
2022-08-11T16:17:55.917Z,27.69
2022-08-11T16:20:27.839Z,27.72
2022-08-11T16:23:01.914Z,27.73
2022-08-11T16:27:05.147Z,27.76
2022-08-11T16:28:23.109Z,27.72
2022-08-11T16:30:52.284Z,27.68
2022-08-11T16:33:48.393Z,27.63
2022-08-11T16:36:31.671Z,27.58
2022-08-11T16:39:00.111Z,27.57
2022-08-11T16:41:52.132Z,27.58
2022-08-11T16:44:38.947Z,27.58
2022-08-11T16:48:33.092Z,27.43
2022-08-11T16:50:13.507Z,27.45
2022-08-11T16:52:40.027Z,27.43
2022-08-11T16:55:09.682Z,27.40
2022-08-11T16:57:59.031Z,27.41
2022-08-11T17:00:28.418Z,27.41
2022-08-11T17:03:17.230Z,27.43
2022-08-11T17:06:11.715Z,27.38
2022-08-11T17:09:10.483Z,27.32
2022-08-11T17:12:07.250Z,27.26
2022-08-11T17:14:45.888Z,27.11
2022-08-11T17:17:20.746Z,27.07
2022-08-11T17:20:41.273Z,27.07
2022-08-11T17:23:03.845Z,27.07
2022-08-11T17:26:04.032Z,26.99
2022-08-11T17:28:24.521Z,26.97
2022-08-11T17:31:21.830Z,26.96
2022-08-11T17:34:10.215Z,26.89
2022-08-11T17:36:45.178Z,26.85
2022-08-11T17:39:14.204Z,26.83
2022-08-11T17:42:02.507Z,26.81
2022-08-11T17:44:51.571Z,26.73
2022-08-11T17:47:38.774Z,26.70
2022-08-11T17:50:16.909Z,26.64
2022-08-11T17:53:05.667Z,26.65
2022-08-11T17:55:54.756Z,26.61
2022-08-11T17:58:42.046Z,26.59
2022-08-11T18:01:11.955Z,26.52
2022-08-11T18:03:56.424Z,26.45
2022-08-11T18:06:33.786Z,26.09
2022-08-11T18:09:27.657Z,26.12
2022-08-11T18:12:14.853Z,26.05
2022-08-11T18:15:07.239Z,25.92
2022-08-11T18:17:54.477Z,25.79
2022-08-11T18:20:42.246Z,25.67
2022-08-11T18:23:46.233Z,25.56
2022-08-11T18:26:39.433Z,25.41
2022-08-11T18:29:27.308Z,25.26
2022-08-11T18:32:21.988Z,25.12
2022-08-11T18:35:14.897Z,24.92
2022-08-11T18:38:07.151Z,24.77
2022-08-11T18:40:55.519Z,24.69
2022-08-11T18:43:45.763Z,24.51
2022-08-11T18:46:37.000Z,24.31
2022-08-11T18:50:01.006Z,24.16
2022-08-11T18:52:38.038Z,23.94
2022-08-11T18:55:32.211Z,23.74
2022-08-11T18:58:24.029Z,23.59
2022-08-11T19:01:14.982Z,23.46
2022-08-11T19:04:11.055Z,23.32
2022-08-11T19:07:06.045Z,23.13
2022-08-11T19:09:56.748Z,22.97
2022-08-11T19:12:44.608Z,22.79
2022-08-11T19:15:31.895Z,22.69
2022-08-11T19:18:19.983Z,22.56
2022-08-11T19:21:06.707Z,22.42
2022-08-11T19:24:02.442Z,22.16
2022-08-11T19:26:53.351Z,22.12
2022-08-11T19:30:07.888Z,22.00
2022-08-11T19:32:48.510Z,21.78
2022-08-11T19:35:35.834Z,21.62
2022-08-11T19:38:23.147Z,21.55
2022-08-11T19:41:10.939Z,21.42
2022-08-11T19:43:57.759Z,21.27
2022-08-11T19:46:44.369Z,21.18
2022-08-11T19:49:30.667Z,20.81
2022-08-11T19:52:17.702Z,20.81
2022-08-11T19:55:04.328Z,20.74
2022-08-11T19:57:50.615Z,20.65
2022-08-11T20:00:39.709Z,20.66
2022-08-11T20:03:32.070Z,20.60
2022-08-11T20:06:23.578Z,20.45
2022-08-11T20:09:14.347Z,20.38
2022-08-11T20:12:04.699Z,20.32
2022-08-11T20:14:55.546Z,20.29
2022-08-11T20:17:45.836Z,20.21
2022-08-11T20:20:34.831Z,20.15
2022-08-11T20:23:24.319Z,20.05
2022-08-11T20:26:30.132Z,19.92
2022-08-11T20:29:19.399Z,19.77
2022-08-11T20:32:06.374Z,19.70
2022-08-11T20:34:57.131Z,19.56
2022-08-11T20:37:50.155Z,19.44
2022-08-11T20:40:39.703Z,19.34
2022-08-11T20:44:07.468Z,19.17
2022-08-11T20:46:41.648Z,19.00
2022-08-11T20:49:41.317Z,18.91
2022-08-11T20:52:36.585Z,18.78
2022-08-11T20:55:26.115Z,18.71
2022-08-11T20:58:48.088Z,18.62
2022-08-11T21:01:41.446Z,18.53
2022-08-11T21:04:27.259Z,18.47
2022-08-11T21:07:22.844Z,18.53
2022-08-11T21:10:23.474Z,18.49
2022-08-11T21:13:24.274Z,18.44
2022-08-11T21:16:25.556Z,18.21
2022-08-11T21:20:00.388Z,18.05
2022-08-11T21:22:42.414Z,17.95
2022-08-11T21:25:47.683Z,17.95
2022-08-11T21:28:37.079Z,17.99
2022-08-11T21:31:25.812Z,17.97
2022-08-11T21:34:14.526Z,17.93
2022-08-11T21:37:04.232Z,17.89
2022-08-11T21:39:50.680Z,17.84
2022-08-11T21:42:40.035Z,17.74
2022-08-11T21:45:28.628Z,17.62
2022-08-11T21:48:15.934Z,17.50
2022-08-11T21:51:01.076Z,17.39
2022-08-11T21:53:47.318Z,17.34
2022-08-11T21:56:33.523Z,17.33
2022-08-11T21:59:20.333Z,17.37
2022-08-11T22:02:12.443Z,17.34
2022-08-11T22:04:59.574Z,17.20
2022-08-11T22:07:45.957Z,17.14
2022-08-11T22:10:41.944Z,17.13
2022-08-11T22:13:31.033Z,17.11
2022-08-11T22:16:17.917Z,17.03
2022-08-11T22:19:05.021Z,16.61
2022-08-11T22:22:01.756Z,16.51
2022-08-11T22:24:52.746Z,16.41
2022-08-11T22:27:39.667Z,16.42
2022-08-11T22:30:28.052Z,16.33
2022-08-11T22:33:16.742Z,16.29
2022-08-11T22:36:05.348Z,16.35
2022-08-11T22:38:53.567Z,16.41
2022-08-11T22:41:41.853Z,16.46
2022-08-11T22:44:30.290Z,16.30
2022-08-11T22:47:19.679Z,16.04
2022-08-11T22:50:10.508Z,15.87
2022-08-11T22:52:56.867Z,15.70
2022-08-11T22:55:44.521Z,15.56
2022-08-11T22:58:32.747Z,15.52
2022-08-11T23:01:19.053Z,15.50
2022-08-11T23:04:08.379Z,15.45
2022-08-11T23:06:54.206Z,15.57
2022-08-11T23:09:41.548Z,15.61
2022-08-11T23:12:27.860Z,15.55
2022-08-11T23:15:14.354Z,15.48
2022-08-11T23:17:59.741Z,15.40
2022-08-11T23:20:54.576Z,15.35
2022-08-11T23:23:41.281Z,15.40
2022-08-11T23:26:28.600Z,15.43
2022-08-11T23:29:17.298Z,15.36
2022-08-11T23:32:05.733Z,15.31
2022-08-11T23:35:04.162Z,15.25
2022-08-11T23:38:02.479Z,15.29
2022-08-11T23:40:47.654Z,15.34
2022-08-11T23:43:41.896Z,15.40
2022-08-11T23:46:27.667Z,15.44
2022-08-11T23:49:20.068Z,15.39
2022-08-11T23:52:07.683Z,15.41
2022-08-11T23:54:54.495Z,15.41
2022-08-11T23:57:47.695Z,15.48
